Terminal Aerodrome Forecast
Issued by NWS Lake Charles, LA

Home | Current Version | Previous Version | Text Only | Print | Product List | Glossary On
Versions: 1 2 3 4 5 6 7 8 9 10 11 12 13 14 15 16 17 18 19 20 21
000
FTUS44 KLCH 011700
TAFLFT
TAF
KLFT 011721Z 0118/0218 17010KT P6SM VCTS FEW035CB
      TEMPO 0120/0124 5SM -TSRA BKN025CB
     FM020100 17004KT P6SM BKN250=

USA.gov is the U.S. government's official web portal to all federal, state and local government web resources and services.